ADDS METAR Data INFO
IDs: Format: Raw Decoded Include TAF

Data at: 1051 UTC 18 Aug 2017

KTKI 180953Z AUTO 00000KT 10SM CLR 24/23 A2998 RMK AO2 SLP146 T02440233 $
KTKI 180853Z AUTO 00000KT 10SM CLR 24/23 A2998 RMK AO2 SLP149 6//// T02440228 $
KTKI 180753Z AUTO 00000KT 10SM CLR 24/23 A2999 RMK AO2 SLP151 T02390233 $
KTKI 180653Z AUTO 00000KT 10SM CLR 24/24 A2999 RMK AO2 SLP152 T02440239 $
KTKI 180318Z AUTO 00000KT 10SM FEW026 SCT035 27/27 A3000 RMK AO2 T02720272 $
KTKI 180302Z AUTO 14003KT 10SM BKN028 BKN041 27/27 A3000 RMK AO2 T02720272 $
KTKI 180253Z 13003KT 10SM CLR 27/27 A3000 RMK AO2 SLP157 T02720272 53015 $
KTKI 180153Z 11004KT 10SM CLR 28/27 A2998 RMK AO2 SLPNO T02780267 $
KTKI 180053Z 15004KT 10SM CLR 28/27 A2996 RMK AO2 SLPNO T02830267 $
KTKI 172353Z 13003KT 10SM CLR 29/27 A2996 RMK AO2 SLP141 T02890272 10311 20261 55005 $
KTKI 172253Z 14005KT 10SM CLR 30/27 A2995 RMK AO2 SLP138 T03000272 $
KTKI 172214Z 11004KT 10SM SCT027 30/27 A2995 RMK AO2 T03000272 $
KTKI 172153Z 13005KT 10SM BKN023 30/27 A2996 RMK AO2 SLP138 T03000267 $
KTKI 172053Z 13007KT 10SM BKN019 31/27 A2998 RMK AO2 SLP143 T03060267 58022 $
KTKI 171953Z 12006KT 10SM BKN018 OVC029 29/26 A3001 RMK AO2 SLP154 T02890261 $
KTKI 171912Z 15007KT 10SM BKN015 BKN020 OVC029 28/26 A3002 RMK AO2 T02780256 $
KTKI 171853Z 17007KT 10SM OVC008 28/26 A3003 RMK AO2 SLP161 T02780256 $
KTKI 171753Z 15010KT 10SM OVC008 26/24 A3004 RMK AO2 SLP168 6//// T02560244 51010 $
KTKI 171653Z 15012KT 10SM BKN008 OVC029 26/24 A3003 RMK AO2 SLP165 T02560244 $
KTKI 171553Z 14008KT 10SM BKN006 OVC025 23/23 A3003 RMK AO2 SLP165 T02330233 $
KTKI 171453Z 14011KT 10SM OVC005 23/23 A3001 RMK AO2 SLP158 6//// T02280228 $
KTKI 171426Z 13010KT 10SM BKN005 23/23 A3001 RMK AO2 LTG DSNT E AND S T02330233 $
KTKI 171353Z 17008KT 10SM BKN045 A2999 RMK AO2 LTG DSNT E-S SLPNO $
KTKI 171342Z 17008KT 10SM BKN035 A3000 RMK AO2 LTG DSNT NE-S $
KTKI 171307Z 17008KT 10SM FEW006 OVC020 A3001 RMK AO2 LTG DSNT E-S $
KTKI 171253Z 00000KT 10SM VCTS FEW006 OVC020 A3001 RMK AO2 LTG DSNT E-SW TSE25E40 SLPNO PNO $
KTKI 171246Z VCTS A3001 RMK AO2 LTG DSNT ALQDS TSE25E40 PNO $
KTKI 171233Z TS A2999 RMK AO2 LTG DSNT ALQDS TSE25 PNO $
KTKI 171128Z 02006KT 3SM +TSRA BR FEW015 BKN036 OVC100 21/21 A3001 RMK AO2 LTG DSNT ALQDS P0036 T02060206
KTKI 171053Z 02006KT 3SM +TSRA BR BKN017 OVC021 21/21 A3001 RMK AO2 PK WND 02029/1014 LTG DSNT ALQDS RAB03 TSE0957B39 SLP156 P0019 T02110211
KTKI 171045Z 02009KT 5SM +TSRA BR BKN014 BKN020 OVC038 21/21 A3000 RMK AO2 PK WND 02029/1014 LTG DSNT ALQDS RAB03 TSE0957B39 P0015 T02110211
KTKI 171017Z AUTO 01020G28KT 4SM VCTS +RA BR FEW017 BKN031 OVC042 22/22 A2997 RMK AO2 PK WND 02029/1014 LTG DSNT ALQDS RAB03 TSE0957 P0007 T02220217
KTKI 171003Z AUTO 01021G29KT 10SM VCTS -RA FEW017 OVC029 23/21 A2998 RMK AO2 PK WND 01029/1001 LTG DSNT ALQDS RAB03 TSE0957 P0000 T02330211
KTKI 170953Z AUTO 01022G29KT 10SM TS OVC029 24/21 A2998 RMK AO2 PK WND 01029/0952 WSHFT 0925 LTG DSNT ALQDS TSB42 SLP145 T02390211
KTKI 170948Z AUTO 01020G26KT 10SM TS BKN026 OVC032 24/21 A2998 RMK AO2 PK WND 01026/0947 WSHFT 0925 LTG DSNT W-NE TSB42
KTKI 170939Z AUTO 35015KT 10SM BKN027 OVC075 25/22 A2999 RMK AO2 WSHFT 0925 LTG DSNT W-NE PRESRR T02500217
KTKI 170853Z AUTO 18011KT 10SM FEW080 28/23 A2993 RMK AO2 LTG DSNT N AND NW SLP125 T02830233 50003
KTKI 170753Z AUTO 18009KT 10SM CLR 28/23 A2994 RMK AO2 SLP128 T02780233
KTKI 170653Z AUTO 16008KT 10SM CLR 28/23 A2992 RMK AO2 SLP123 T02830233 TSNO
KTKI 170553Z AUTO 17008KT 10SM BKN100 28/24 A2992 RMK AO2 SLP123 T02780239 10317 20267 403390256 51013 TSNO
KTKI 170453Z AUTO 15005KT 10SM CLR 27/24 A2991 RMK AO2 SLP122 T02720244 TSNO
KTKI 170353Z AUTO 15003KT 10SM CLR 28/24 A2989 RMK AO2 SLP114 T02780244 TSNO
KTKI 170253Z 15004KT 10SM CLR 28/24 A2988 RMK AO2 SLP111 T02780244 53007
KTKI 170153Z 15007KT 10SM CLR 29/24 A2985 RMK AO2 SLP103 T02940244
KTKI 170053Z 15006KT 10SM BKN090 31/24 A2986 RMK AO2 SLP104 T03060244
KTKI 162353Z 15009KT 10SM FEW060 32/24 A2986 RMK AO2 SLP104 T03170239 10339 20317 56011
KTKI 162253Z 15010KT 10SM SCT055 BKN070 33/25 A2986 RMK AO2 SLP105 T03280250